sensor_id;sensor_type;location;lat;lon;timestamp;pressure;altitude;pressure_sealevel;temperature;humidity
16821;BME280;8527;49.740;6.604;2023-11-21T00:00:38;99045.31;;;9.25;100.00
16821;BME280;8527;49.740;6.604;2023-11-21T00:05:41;99041.47;;;9.27;100.00
16821;BME280;8527;49.740;6.604;2023-11-21T00:10:47;99046.94;;;9.26;100.00
16821;BME280;8527;49.740;6.604;2023-11-21T00:15:52;99049.41;;;9.27;100.00
16821;BME280;8527;49.740;6.604;2023-11-21T00:20:54;99049.13;;;9.22;100.00
16821;BME280;8527;49.740;6.604;2023-11-21T00:25:54;99049.06;;;9.31;100.00
16821;BME280;8527;49.740;6.604;2023-11-21T00:30:53;99057.75;;;9.39;100.00
16821;BME280;8527;49.740;6.604;2023-11-21T00:35:58;99060.22;;;9.41;100.00
16821;BME280;8527;49.740;6.604;2023-11-21T00:40:56;99066.81;;;9.45;100.00
16821;BME280;8527;49.740;6.604;2023-11-21T00:45:55;99062.53;;;9.44;100.00
16821;BME280;8527;49.740;6.604;2023-11-21T00:50:59;99054.47;;;9.37;100.00
16821;BME280;8527;49.740;6.604;2023-11-21T00:55:58;99059.25;;;9.42;100.00
16821;BME280;8527;49.740;6.604;2023-11-21T01:00:59;99062.16;;;9.47;100.00
16821;BME280;8527;49.740;6.604;2023-11-21T01:06:01;99071.75;;;9.48;100.00
16821;BME280;8527;49.740;6.604;2023-11-21T01:11:00;99088.47;;;9.49;100.00
16821;BME280;8527;49.740;6.604;2023-11-21T01:15:58;99088.81;;;9.46;100.00
16821;BME280;8527;49.740;6.604;2023-11-21T01:21:03;99095.19;;;9.36;100.00
16821;BME280;8527;49.740;6.604;2023-11-21T01:26:03;99101.72;;;9.49;100.00
16821;BME280;8527;49.740;6.604;2023-11-21T01:31:08;99098.50;;;9.53;100.00
16821;BME280;8527;49.740;6.604;2023-11-21T01:36:10;99116.81;;;9.63;100.00
16821;BME280;8527;49.740;6.604;2023-11-21T01:41:17;99120.47;;;9.62;100.00
16821;BME280;8527;49.740;6.604;2023-11-21T01:46:18;99123.28;;;9.61;100.00
16821;BME280;8527;49.740;6.604;2023-11-21T01:51:19;99129.31;;;9.54;100.00
16821;BME280;8527;49.740;6.604;2023-11-21T01:56:18;99127.00;;;9.51;100.00
16821;BME280;8527;49.740;6.604;2023-11-21T02:01:21;99122.91;;;9.49;100.00
16821;BME280;8527;49.740;6.604;2023-11-21T02:06:29;99130.38;;;9.45;100.00
16821;BME280;8527;49.740;6.604;2023-11-21T02:11:29;99136.34;;;9.39;100.00
16821;BME280;8527;49.740;6.604;2023-11-21T02:16:30;99133.22;;;9.35;100.00
16821;BME280;8527;49.740;6.604;2023-11-21T02:21:32;99145.53;;;9.28;100.00
16821;BME280;8527;49.740;6.604;2023-11-21T02:26:38;99141.84;;;9.37;100.00
16821;BME280;8527;49.740;6.604;2023-11-21T02:31:36;99153.44;;;9.36;100.00
16821;BME280;8527;49.740;6.604;2023-11-21T02:36:43;99163.06;;;9.29;100.00
16821;BME280;8527;49.740;6.604;2023-11-21T02:41:45;99166.88;;;9.26;100.00
16821;BME280;8527;49.740;6.604;2023-11-21T02:46:44;99174.94;;;9.33;100.00
16821;BME280;8527;49.740;6.604;2023-11-21T02:51:46;99179.97;;;9.20;100.00
16821;BME280;8527;49.740;6.604;2023-11-21T02:56:47;99183.94;;;9.24;100.00
16821;BME280;8527;49.740;6.604;2023-11-21T03:01:55;99188.88;;;9.27;100.00
16821;BME280;8527;49.740;6.604;2023-11-21T03:06:54;99185.53;;;9.33;100.00
16821;BME280;8527;49.740;6.604;2023-11-21T03:11:56;99185.41;;;9.26;100.00
16821;BME280;8527;49.740;6.604;2023-11-21T03:16:57;99193.41;;;9.18;100.00
16821;BME280;8527;49.740;6.604;2023-11-21T03:21:58;99198.69;;;9.18;100.00
16821;BME280;8527;49.740;6.604;2023-11-21T03:26:59;99210.94;;;9.11;100.00
16821;BME280;8527;49.740;6.604;2023-11-21T03:32:00;99214.22;;;9.21;100.00
16821;BME280;8527;49.740;6.604;2023-11-21T03:36:59;99220.53;;;9.12;100.00
16821;BME280;8527;49.740;6.604;2023-11-21T03:42:06;99226.66;;;9.12;100.00
16821;BME280;8527;49.740;6.604;2023-11-21T03:47:07;99239.41;;;9.09;100.00
16821;BME280;8527;49.740;6.604;2023-11-21T03:52:05;99237.28;;;8.96;100.00
16821;BME280;8527;49.740;6.604;2023-11-21T03:57:07;99246.75;;;8.90;100.00
16821;BME280;8527;49.740;6.604;2023-11-21T04:02:09;99240.63;;;8.90;100.00
16821;BME280;8527;49.740;6.604;2023-11-21T04:07:10;99252.22;;;8.89;100.00
16821;BME280;8527;49.740;6.604;2023-11-21T04:12:11;99263.09;;;8.94;100.00
16821;BME280;8527;49.740;6.604;2023-11-21T04:17:09;99258.50;;;8.88;100.00
16821;BME280;8527;49.740;6.604;2023-11-21T04:22:08;99271.53;;;8.89;100.00
16821;BME280;8527;49.740;6.604;2023-11-21T04:27:12;99283.78;;;8.90;100.00
16821;BME280;8527;49.740;6.604;2023-11-21T04:32:13;99292.63;;;9.14;100.00
16821;BME280;8527;49.740;6.604;2023-11-21T04:37:14;99300.63;;;9.06;100.00
16821;BME280;8527;49.740;6.604;2023-11-21T04:42:16;99298.97;;;9.05;100.00
16821;BME280;8527;49.740;6.604;2023-11-21T04:47:17;99309.69;;;9.11;100.00
16821;BME280;8527;49.740;6.604;2023-11-21T04:52:15;99320.94;;;9.05;100.00
16821;BME280;8527;49.740;6.604;2023-11-21T04:57:28;99327.78;;;8.83;100.00
16821;BME280;8527;49.740;6.604;2023-11-21T05:02:32;99319.00;;;8.91;100.00
16821;BME280;8527;49.740;6.604;2023-11-21T05:07:34;99317.19;;;8.91;100.00
16821;BME280;8527;49.740;6.604;2023-11-21T05:12:36;99321.00;;;8.80;100.00
16821;BME280;8527;49.740;6.604;2023-11-21T05:17:35;99320.50;;;8.85;100.00
16821;BME280;8527;49.740;6.604;2023-11-21T05:22:36;99325.44;;;8.88;100.00
16821;BME280;8527;49.740;6.604;2023-11-21T05:27:40;99327.13;;;8.81;100.00
16821;BME280;8527;49.740;6.604;2023-11-21T05:32:39;99323.44;;;8.90;100.00
16821;BME280;8527;49.740;6.604;2023-11-21T05:37:39;99338.00;;;8.86;100.00
16821;BME280;8527;49.740;6.604;2023-11-21T05:42:44;99330.25;;;8.84;100.00
16821;BME280;8527;49.740;6.604;2023-11-21T05:47:45;99338.66;;;8.88;100.00
16821;BME280;8527;49.740;6.604;2023-11-21T05:52:51;99352.25;;;8.85;100.00
16821;BME280;8527;49.740;6.604;2023-11-21T05:57:55;99357.19;;;8.88;100.00
16821;BME280;8527;49.740;6.604;2023-11-21T06:02:57;99366.78;;;8.89;100.00
16821;BME280;8527;49.740;6.604;2023-11-21T06:07:59;99382.00;;;8.87;100.00
16821;BME280;8527;49.740;6.604;2023-11-21T06:13:00;99379.03;;;8.82;100.00
16821;BME280;8527;49.740;6.604;2023-11-21T06:17:59;99393.09;;;8.74;100.00
16821;BME280;8527;49.740;6.604;2023-11-21T06:22:57;99394.91;;;8.82;100.00
16821;BME280;8527;49.740;6.604;2023-11-21T06:28:01;99396.72;;;8.81;100.00
16821;BME280;8527;49.740;6.604;2023-11-21T06:33:06;99406.47;;;8.81;100.00
16821;BME280;8527;49.740;6.604;2023-11-21T06:38:11;99407.97;;;8.75;100.00
16821;BME280;8527;49.740;6.604;2023-11-21T06:43:12;99426.13;;;8.78;100.00
16821;BME280;8527;49.740;6.604;2023-11-21T06:48:11;99420.69;;;8.80;100.00
16821;BME280;8527;49.740;6.604;2023-11-21T06:53:10;99443.31;;;8.82;100.00
16821;BME280;8527;49.740;6.604;2023-11-21T06:58:08;99446.47;;;8.69;100.00
16821;BME280;8527;49.740;6.604;2023-11-21T07:03:12;99454.75;;;8.66;100.00
16821;BME280;8527;49.740;6.604;2023-11-21T07:08:14;99474.22;;;8.57;100.00
16821;BME280;8527;49.740;6.604;2023-11-21T07:13:17;99482.81;;;8.59;100.00
16821;BME280;8527;49.740;6.604;2023-11-21T07:18:19;99488.13;;;8.76;100.00
16821;BME280;8527;49.740;6.604;2023-11-21T07:23:18;99511.09;;;8.83;100.00
16821;BME280;8527;49.740;6.604;2023-11-21T07:28:18;99509.47;;;8.82;100.00
16821;BME280;8527;49.740;6.604;2023-11-21T07:33:19;99518.88;;;8.85;100.00
16821;BME280;8527;49.740;6.604;2023-11-21T07:38:20;99522.69;;;8.82;100.00
16821;BME280;8527;49.740;6.604;2023-11-21T07:43:27;99538.06;;;8.79;100.00
16821;BME280;8527;49.740;6.604;2023-11-21T07:48:36;99532.28;;;8.83;100.00
16821;BME280;8527;49.740;6.604;2023-11-21T07:53:35;99539.06;;;8.86;100.00
16821;BME280;8527;49.740;6.604;2023-11-21T07:58:37;99544.03;;;8.89;100.00
16821;BME280;8527;49.740;6.604;2023-11-21T08:03:48;99552.66;;;8.91;100.00
16821;BME280;8527;49.740;6.604;2023-11-21T08:08:50;99559.88;;;8.89;100.00
16821;BME280;8527;49.740;6.604;2023-11-21T08:13:52;99577.59;;;8.97;100.00
16821;BME280;8527;49.740;6.604;2023-11-21T08:18:53;99571.34;;;8.98;100.00
16821;BME280;8527;49.740;6.604;2023-11-21T08:23:54;99578.47;;;9.06;100.00
16821;BME280;8527;49.740;6.604;2023-11-21T08:28:53;99583.41;;;9.09;100.00
16821;BME280;8527;49.740;6.604;2023-11-21T08:33:54;99579.97;;;9.17;100.00
16821;BME280;8527;49.740;6.604;2023-11-21T08:38:53;99581.63;;;9.26;100.00
16821;BME280;8527;49.740;6.604;2023-11-21T08:43:51;99578.50;;;9.31;100.00
16821;BME280;8527;49.740;6.604;2023-11-21T08:48:50;99584.44;;;9.41;100.00
16821;BME280;8527;49.740;6.604;2023-11-21T08:53:55;99586.59;;;9.46;100.00
16821;BME280;8527;49.740;6.604;2023-11-21T08:58:56;99593.72;;;9.45;100.00
16821;BME280;8527;49.740;6.604;2023-11-21T09:03:59;99600.00;;;9.52;100.00
16821;BME280;8527;49.740;6.604;2023-11-21T09:09:00;99603.16;;;9.56;100.00
16821;BME280;8527;49.740;6.604;2023-11-21T09:14:06;99616.22;;;9.57;100.00
16821;BME280;8527;49.740;6.604;2023-11-21T09:19:05;99628.63;;;9.57;100.00
16821;BME280;8527;49.740;6.604;2023-11-21T09:24:12;99632.28;;;9.39;100.00
16821;BME280;8527;49.740;6.604;2023-11-21T09:29:20;99631.63;;;9.70;100.00
16821;BME280;8527;49.740;6.604;2023-11-21T09:34:21;99641.91;;;9.74;100.00
16821;BME280;8527;49.740;6.604;2023-11-21T09:39:23;99645.34;;;9.74;100.00
16821;BME280;8527;49.740;6.604;2023-11-21T09:44:35;99668.19;;;9.67;100.00
16821;BME280;8527;49.740;6.604;2023-11-21T09:49:34;99670.22;;;9.81;100.00
16821;BME280;8527;49.740;6.604;2023-11-21T09:54:36;99666.53;;;9.91;99.46
16821;BME280;8527;49.740;6.604;2023-11-21T09:59:38;99669.53;;;9.79;98.16
16821;BME280;8527;49.740;6.604;2023-11-21T10:04:37;99663.59;;;9.94;97.15
16821;BME280;8527;49.740;6.604;2023-11-21T10:09:38;99669.69;;;10.03;97.46
16821;BME280;8527;49.740;6.604;2023-11-21T10:14:51;99674.78;;;10.29;96.72
16821;BME280;8527;49.740;6.604;2023-11-21T10:19:53;99693.34;;;10.37;97.13
16821;BME280;8527;49.740;6.604;2023-11-21T10:24:57;99695.19;;;10.28;95.92
16821;BME280;8527;49.740;6.604;2023-11-21T10:29:55;99688.88;;;10.21;93.91
16821;BME280;8527;49.740;6.604;2023-11-21T10:34:56;99685.94;;;10.24;94.08
16821;BME280;8527;49.740;6.604;2023-11-21T10:40:03;99684.22;;;10.48;93.59
16821;BME280;8527;49.740;6.604;2023-11-21T10:45:09;99693.19;;;10.39;92.74
16821;BME280;8527;49.740;6.604;2023-11-21T10:50:13;99685.38;;;10.37;91.51
16821;BME280;8527;49.740;6.604;2023-11-21T10:55:22;99688.03;;;10.29;91.19
16821;BME280;8527;49.740;6.604;2023-11-21T11:00:24;99698.66;;;10.37;90.70
16821;BME280;8527;49.740;6.604;2023-11-21T11:05:30;99696.34;;;10.34;90.92
16821;BME280;8527;49.740;6.604;2023-11-21T11:10:34;99702.63;;;10.41;91.26
16821;BME280;8527;49.740;6.604;2023-11-21T11:15:34;99698.16;;;10.50;91.36
16821;BME280;8527;49.740;6.604;2023-11-21T11:20:37;99695.66;;;10.57;90.81
16821;BME280;8527;49.740;6.604;2023-11-21T11:25:52;99688.22;;;10.52;90.24
16821;BME280;8527;49.740;6.604;2023-11-21T11:30:59;99687.56;;;10.50;90.84
16821;BME280;8527;49.740;6.604;2023-11-21T11:36:08;99691.81;;;10.60;89.76
16821;BME280;8527;49.740;6.604;2023-11-21T11:41:12;99680.25;;;10.92;89.78
16821;BME280;8527;49.740;6.604;2023-11-21T11:46:13;99691.84;;;11.00;86.81
16821;BME280;8527;49.740;6.604;2023-11-21T11:51:22;99685.44;;;10.86;87.59
16821;BME280;8527;49.740;6.604;2023-11-21T11:56:30;99691.34;;;10.56;87.21
16821;BME280;8527;49.740;6.604;2023-11-21T12:01:34;99696.13;;;10.61;87.94
16821;BME280;8527;49.740;6.604;2023-11-21T12:06:33;99699.63;;;10.53;87.19
16821;BME280;8527;49.740;6.604;2023-11-21T12:11:36;99684.22;;;10.48;84.67
16821;BME280;8527;49.740;6.604;2023-11-21T12:16:36;99689.66;;;10.63;84.33
16821;BME280;8527;49.740;6.604;2023-11-21T12:21:36;99686.72;;;10.58;84.11
16821;BME280;8527;49.740;6.604;2023-11-21T12:26:39;99690.59;;;10.87;83.60
16821;BME280;8527;49.740;6.604;2023-11-21T12:31:38;99699.84;;;10.91;83.45
16821;BME280;8527;49.740;6.604;2023-11-21T12:36:37;99711.97;;;10.94;84.01
16821;BME280;8527;49.740;6.604;2023-11-21T12:41:38;99727.09;;;10.85;84.07
16821;BME280;8527;49.740;6.604;2023-11-21T12:46:41;99725.06;;;10.95;84.67
16821;BME280;8527;49.740;6.604;2023-11-21T12:51:41;99727.84;;;11.02;85.46
16821;BME280;8527;49.740;6.604;2023-11-21T12:56:47;99730.91;;;10.82;84.07
16821;BME280;8527;49.740;6.604;2023-11-21T13:01:47;99735.56;;;10.80;85.08
16821;BME280;8527;49.740;6.604;2023-11-21T13:06:50;99737.50;;;10.87;86.11
16821;BME280;8527;49.740;6.604;2023-11-21T13:12:01;99747.13;;;10.96;87.15
16821;BME280;8527;49.740;6.604;2023-11-21T13:17:04;99752.91;;;11.00;87.35
16821;BME280;8527;49.740;6.604;2023-11-21T13:22:02;99747.22;;;11.19;88.33
16821;BME280;8527;49.740;6.604;2023-11-21T13:27:03;99744.22;;;11.14;86.65
16821;BME280;8527;49.740;6.604;2023-11-21T13:32:07;99751.81;;;11.25;87.99
16821;BME280;8527;49.740;6.604;2023-11-21T13:37:11;99752.44;;;11.36;88.00
16821;BME280;8527;49.740;6.604;2023-11-21T13:42:13;99759.69;;;11.42;90.88
16821;BME280;8527;49.740;6.604;2023-11-21T13:47:12;99760.69;;;11.41;92.24
16821;BME280;8527;49.740;6.604;2023-11-21T13:52:10;99770.00;;;11.45;91.56
16821;BME280;8527;49.740;6.604;2023-11-21T13:57:19;99762.47;;;11.49;93.32
16821;BME280;8527;49.740;6.604;2023-11-21T14:02:23;99763.63;;;11.54;92.87
16821;BME280;8527;49.740;6.604;2023-11-21T14:07:38;99767.47;;;11.52;93.92
16821;BME280;8527;49.740;6.604;2023-11-21T14:12:45;99778.34;;;11.65;93.44
16821;BME280;8527;49.740;6.604;2023-11-21T14:17:46;99778.16;;;11.67;92.87
16821;BME280;8527;49.740;6.604;2023-11-21T14:22:45;99779.25;;;11.81;93.56
16821;BME280;8527;49.740;6.604;2023-11-21T14:27:46;99790.06;;;11.79;90.41
16821;BME280;8527;49.740;6.604;2023-11-21T14:32:48;99799.81;;;11.87;91.38
16821;BME280;8527;49.740;6.604;2023-11-21T14:37:49;99809.38;;;11.73;91.26
16821;BME280;8527;49.740;6.604;2023-11-21T14:42:51;99801.50;;;11.57;89.14
16821;BME280;8527;49.740;6.604;2023-11-21T14:47:55;99810.63;;;11.54;87.94
16821;BME280;8527;49.740;6.604;2023-11-21T14:53:01;99812.88;;;11.34;84.37
16821;BME280;8527;49.740;6.604;2023-11-21T14:58:04;99814.41;;;11.11;82.94
16821;BME280;8527;49.740;6.604;2023-11-21T15:03:06;99824.03;;;11.21;83.30
16821;BME280;8527;49.740;6.604;2023-11-21T15:08:06;99832.34;;;11.09;84.28
16821;BME280;8527;49.740;6.604;2023-11-21T15:13:20;99836.34;;;11.14;86.17
16821;BME280;8527;49.740;6.604;2023-11-21T15:18:25;99843.97;;;11.08;88.52
16821;BME280;8527;49.740;6.604;2023-11-21T15:23:26;99852.94;;;11.07;91.69
16821;BME280;8527;49.740;6.604;2023-11-21T15:28:30;99859.13;;;10.83;92.61
16821;BME280;8527;49.740;6.604;2023-11-21T15:33:33;99863.41;;;10.92;91.87
16821;BME280;8527;49.740;6.604;2023-11-21T15:38:32;99866.44;;;10.81;92.96
16821;BME280;8527;49.740;6.604;2023-11-21T15:43:40;99866.25;;;10.58;94.35
16821;BME280;8527;49.740;6.604;2023-11-21T15:48:41;99868.25;;;10.55;93.89
16821;BME280;8527;49.740;6.604;2023-11-21T15:53:45;99876.69;;;10.51;95.85
16821;BME280;8527;49.740;6.604;2023-11-21T15:58:46;99886.16;;;10.53;95.67
16821;BME280;8527;49.740;6.604;2023-11-21T16:03:45;99883.31;;;10.55;95.76
16821;BME280;8527;49.740;6.604;2023-11-21T16:08:44;99900.41;;;10.44;97.09
16821;BME280;8527;49.740;6.604;2023-11-21T16:13:46;99909.81;;;10.38;96.87
16821;BME280;8527;49.740;6.604;2023-11-21T16:18:44;99905.72;;;10.44;96.82
16821;BME280;8527;49.740;6.604;2023-11-21T16:23:42;99916.78;;;10.31;98.08
16821;BME280;8527;49.740;6.604;2023-11-21T16:28:46;99926.19;;;10.17;98.62
16821;BME280;8527;49.740;6.604;2023-11-21T16:33:51;99932.47;;;10.16;100.00
16821;BME280;8527;49.740;6.604;2023-11-21T16:38:54;99937.44;;;10.19;99.91
16821;BME280;8527;49.740;6.604;2023-11-21T16:43:58;99940.09;;;10.19;99.81
16821;BME280;8527;49.740;6.604;2023-11-21T16:48:59;99946.91;;;10.22;98.25
16821;BME280;8527;49.740;6.604;2023-11-21T16:53:58;99957.66;;;10.12;98.77
16821;BME280;8527;49.740;6.604;2023-11-21T16:59:02;99970.34;;;10.00;100.00
16821;BME280;8527;49.740;6.604;2023-11-21T17:04:04;99965.88;;;10.01;99.43
16821;BME280;8527;49.740;6.604;2023-11-21T17:09:12;99975.66;;;10.00;100.00
16821;BME280;8527;49.740;6.604;2023-11-21T17:14:16;99969.84;;;9.96;99.80
16821;BME280;8527;49.740;6.604;2023-11-21T17:19:17;99991.03;;;9.96;99.68
16821;BME280;8527;49.740;6.604;2023-11-21T17:24:15;99989.75;;;10.01;99.63
16821;BME280;8527;49.740;6.604;2023-11-21T17:29:19;100001.97;;;9.93;99.49
16821;BME280;8527;49.740;6.604;2023-11-21T17:34:21;100007.53;;;9.82;100.00
16821;BME280;8527;49.740;6.604;2023-11-21T17:39:19;100009.31;;;9.73;100.00
16821;BME280;8527;49.740;6.604;2023-11-21T17:44:21;100015.16;;;9.85;100.00
16821;BME280;8527;49.740;6.604;2023-11-21T17:49:19;100023.44;;;9.82;100.00
16821;BME280;8527;49.740;6.604;2023-11-21T17:54:17;100027.53;;;9.76;100.00
16821;BME280;8527;49.740;6.604;2023-11-21T17:59:16;100031.81;;;9.69;100.00
16821;BME280;8527;49.740;6.604;2023-11-21T18:04:17;100035.44;;;9.68;100.00
16821;BME280;8527;49.740;6.604;2023-11-21T18:09:18;100032.53;;;9.53;100.00
16821;BME280;8527;49.740;6.604;2023-11-21T18:14:16;100048.47;;;9.61;100.00
16821;BME280;8527;49.740;6.604;2023-11-21T18:19:20;100053.00;;;9.69;100.00
16821;BME280;8527;49.740;6.604;2023-11-21T18:24:19;100056.47;;;9.69;100.00
16821;BME280;8527;49.740;6.604;2023-11-21T18:29:22;100073.97;;;9.62;100.00
16821;BME280;8527;49.740;6.604;2023-11-21T18:34:26;100085.50;;;9.53;100.00
16821;BME280;8527;49.740;6.604;2023-11-21T18:39:25;100087.81;;;9.56;100.00
16821;BME280;8527;49.740;6.604;2023-11-21T18:44:23;100104.94;;;9.43;100.00
16821;BME280;8527;49.740;6.604;2023-11-21T18:49:28;100104.34;;;9.50;100.00
16821;BME280;8527;49.740;6.604;2023-11-21T18:54:30;100110.63;;;9.49;100.00
16821;BME280;8527;49.740;6.604;2023-11-21T18:59:28;100116.81;;;9.39;100.00
16821;BME280;8527;49.740;6.604;2023-11-21T19:04:30;100126.28;;;9.42;100.00
16821;BME280;8527;49.740;6.604;2023-11-21T19:09:31;100129.31;;;9.47;100.00
16821;BME280;8527;49.740;6.604;2023-11-21T19:14:30;100136.13;;;9.50;100.00
16821;BME280;8527;49.740;6.604;2023-11-21T19:19:34;100130.13;;;9.48;100.00
16821;BME280;8527;49.740;6.604;2023-11-21T19:24:39;100140.34;;;9.42;100.00
16821;BME280;8527;49.740;6.604;2023-11-21T19:29:37;100148.66;;;9.48;100.00
16821;BME280;8527;49.740;6.604;2023-11-21T19:34:36;100154.59;;;9.60;99.80
16821;BME280;8527;49.740;6.604;2023-11-21T19:39:34;100150.84;;;9.52;100.00
16821;BME280;8527;49.740;6.604;2023-11-21T19:44:35;100151.47;;;9.46;100.00
16821;BME280;8527;49.740;6.604;2023-11-21T19:49:35;100160.00;;;9.40;100.00
16821;BME280;8527;49.740;6.604;2023-11-21T19:54:33;100171.53;;;9.49;100.00
16821;BME280;8527;49.740;6.604;2023-11-21T19:59:35;100174.91;;;9.41;100.00
16821;BME280;8527;49.740;6.604;2023-11-21T20:04:38;100180.91;;;9.43;100.00
16821;BME280;8527;49.740;6.604;2023-11-21T20:09:38;100193.09;;;9.54;100.00
16821;BME280;8527;49.740;6.604;2023-11-21T20:14:39;100196.50;;;9.46;100.00
16821;BME280;8527;49.740;6.604;2023-11-21T20:19:37;100198.03;;;9.49;100.00
16821;BME280;8527;49.740;6.604;2023-11-21T20:24:36;100198.25;;;9.55;100.00
16821;BME280;8527;49.740;6.604;2023-11-21T20:29:35;100209.00;;;9.54;100.00
16821;BME280;8527;49.740;6.604;2023-11-21T20:34:37;100207.31;;;9.53;100.00
16821;BME280;8527;49.740;6.604;2023-11-21T20:39:36;100213.44;;;9.53;100.00
16821;BME280;8527;49.740;6.604;2023-11-21T20:44:37;100221.69;;;9.50;100.00
16821;BME280;8527;49.740;6.604;2023-11-21T20:49:41;100224.50;;;9.49;100.00
16821;BME280;8527;49.740;6.604;2023-11-21T20:54:40;100233.88;;;9.43;100.00
16821;BME280;8527;49.740;6.604;2023-11-21T20:59:39;100238.88;;;9.46;100.00
16821;BME280;8527;49.740;6.604;2023-11-21T21:04:44;100247.56;;;9.38;100.00
16821;BME280;8527;49.740;6.604;2023-11-21T21:09:42;100253.88;;;9.27;100.00
16821;BME280;8527;49.740;6.604;2023-11-21T21:14:43;100255.47;;;9.20;100.00
16821;BME280;8527;49.740;6.604;2023-11-21T21:19:44;100256.72;;;9.16;100.00
16821;BME280;8527;49.740;6.604;2023-11-21T21:24:43;100251.16;;;9.19;100.00
16821;BME280;8527;49.740;6.604;2023-11-21T21:29:41;100245.94;;;9.27;100.00
16821;BME280;8527;49.740;6.604;2023-11-21T21:34:44;100258.44;;;9.07;100.00
16821;BME280;8527;49.740;6.604;2023-11-21T21:39:45;100261.63;;;9.11;100.00
16821;BME280;8527;49.740;6.604;2023-11-21T21:44:44;100265.25;;;9.10;100.00
16821;BME280;8527;49.740;6.604;2023-11-21T21:49:47;100278.50;;;9.10;100.00
16821;BME280;8527;49.740;6.604;2023-11-21T21:54:45;100283.78;;;9.10;100.00
16821;BME280;8527;49.740;6.604;2023-11-21T21:59:44;100281.81;;;9.12;100.00
16821;BME280;8527;49.740;6.604;2023-11-21T22:04:46;100285.31;;;9.12;100.00
16821;BME280;8527;49.740;6.604;2023-11-21T22:09:45;100289.22;;;9.08;100.00
16821;BME280;8527;49.740;6.604;2023-11-21T22:14:43;100296.16;;;9.09;100.00
16821;BME280;8527;49.740;6.604;2023-11-21T22:19:42;100300.78;;;9.17;100.00
16821;BME280;8527;49.740;6.604;2023-11-21T22:24:49;100306.88;;;9.18;100.00
16821;BME280;8527;49.740;6.604;2023-11-21T22:29:49;100307.19;;;9.14;100.00
16821;BME280;8527;49.740;6.604;2023-11-21T22:34:48;100308.91;;;8.96;100.00
16821;BME280;8527;49.740;6.604;2023-11-21T22:39:49;100315.03;;;8.96;100.00
16821;BME280;8527;49.740;6.604;2023-11-21T22:44:47;100327.41;;;9.06;100.00
16821;BME280;8527;49.740;6.604;2023-11-21T22:49:54;100332.03;;;8.94;100.00
16821;BME280;8527;49.740;6.604;2023-11-21T22:54:56;100330.69;;;8.80;99.51
16821;BME280;8527;49.740;6.604;2023-11-21T22:59:55;100338.88;;;8.86;100.00
16821;BME280;8527;49.740;6.604;2023-11-21T23:04:53;100346.97;;;8.75;95.31
16821;BME280;8527;49.740;6.604;2023-11-21T23:09:57;100345.72;;;8.79;95.96
16821;BME280;8527;49.740;6.604;2023-11-21T23:14:55;100375.94;;;8.67;93.65
16821;BME280;8527;49.740;6.604;2023-11-21T23:19:56;100407.56;;;7.26;97.53
16821;BME280;8527;49.740;6.604;2023-11-21T23:25:00;100401.09;;;6.87;100.00
16821;BME280;8527;49.740;6.604;2023-11-21T23:29:59;100411.91;;;6.84;100.00
16821;BME280;8527;49.740;6.604;2023-11-21T23:35:03;100417.03;;;6.86;99.39
16821;BME280;8527;49.740;6.604;2023-11-21T23:40:05;100417.59;;;6.89;97.58
16821;BME280;8527;49.740;6.604;2023-11-21T23:45:05;100437.31;;;6.85;96.92
16821;BME280;8527;49.740;6.604;2023-11-21T23:50:07;100437.28;;;6.64;97.08
16821;BME280;8527;49.740;6.604;2023-11-21T23:55:10;100455.00;;;6.62;98.47
